Time;durP1;ratioP1;P1;durP2;ratioP2;P2;SDS_P1;SDS_P2;PMS_P1;PMS_P2;Temp;Humidity;BMP_temperature;BMP_pressure;BME280_temperature;BME280_humidity;BME280_pressure;Samples;Min_cycle;Max_cycle;Signal;HPM_P1;HPM_P2
2024/03/07 00:00:03;;;;;;;24.00;22.80;;;21.00;52.80;;;;;;4974851;28;21037;-69
2024/03/07 00:02:30;;;;;;;23.43;22.27;;;21.00;52.80;;;;;;4974242;28;20435;-68
2024/03/07 00:04:58;;;;;;;23.47;22.40;;;21.00;52.90;;;;;;4974841;28;20468;-68
2024/03/07 00:07:25;;;;;;;23.77;22.67;;;21.00;52.80;;;;;;4973125;28;20444;-67
2024/03/07 00:09:53;;;;;;;23.50;22.40;;;20.90;52.80;;;;;;4974548;28;20469;-68
2024/03/07 00:12:20;;;;;;;24.23;23.03;;;20.90;52.80;;;;;;4973965;28;21012;-67
2024/03/07 00:14:47;;;;;;;23.07;22.13;;;20.90;52.80;;;;;;4965587;28;20850;-68
2024/03/07 00:17:14;;;;;;;23.70;22.50;;;20.90;52.90;;;;;;4955296;28;20811;-68
2024/03/07 00:19:40;;;;;;;23.10;22.10;;;20.90;52.90;;;;;;4954981;28;20866;-68
2024/03/07 00:22:09;;;;;;;24.37;23.17;;;20.90;52.90;;;;;;4954573;28;20448;-68
2024/03/07 00:24:37;;;;;;;23.20;22.10;;;20.90;53.00;;;;;;4961881;28;20546;-68
2024/03/07 00:27:04;;;;;;;23.50;22.40;;;20.80;53.00;;;;;;4974291;28;20507;-68
2024/03/07 00:29:31;;;;;;;23.17;22.17;;;20.80;53.00;;;;;;4974158;28;20797;-67
2024/03/07 00:31:58;;;;;;;23.73;22.60;;;20.80;53.00;;;;;;4973642;28;20498;-68
2024/03/07 00:34:25;;;;;;;23.60;22.50;;;20.80;53.60;;;;;;4968652;28;20471;-68
2024/03/07 00:36:52;;;;;;;24.37;23.17;;;20.80;53.00;;;;;;4954896;28;20436;-68
2024/03/07 00:39:20;;;;;;;23.43;22.40;;;20.80;53.00;;;;;;4954595;28;20452;-68
2024/03/07 00:41:47;;;;;;;23.20;22.10;;;20.80;53.00;;;;;;4953812;28;20445;-68
2024/03/07 00:44:14;;;;;;;23.33;22.33;;;20.80;53.10;;;;;;4958016;28;20476;-68
2024/03/07 00:46:41;;;;;;;23.57;22.50;;;20.80;53.10;;;;;;4973860;28;20455;-69
2024/03/07 00:49:08;;;;;;;23.70;22.60;;;20.80;53.10;;;;;;4974148;28;20448;-69
2024/03/07 00:51:35;;;;;;;22.87;21.87;;;20.80;53.10;;;;;;4973959;28;20484;-69
2024/03/07 00:54:02;;;;;;;23.50;22.27;;;20.70;53.10;;;;;;4971819;28;20440;-69
2024/03/07 00:56:30;;;;;;;23.80;22.60;;;20.70;53.10;;;;;;4954538;28;20959;-68
2024/03/07 00:58:57;;;;;;;23.70;22.60;;;20.70;53.10;;;;;;4954623;28;20449;-69
2024/03/07 01:01:24;;;;;;;23.00;22.00;;;20.70;53.20;;;;;;4954592;28;20806;-69
2024/03/07 01:03:51;;;;;;;23.97;22.87;;;20.70;53.20;;;;;;4953920;28;20449;-68
2024/03/07 01:06:19;;;;;;;23.87;22.73;;;20.70;53.20;;;;;;4973360;28;20454;-69
2024/03/07 01:08:46;;;;;;;23.83;22.73;;;20.70;53.10;;;;;;4973596;28;20451;-68
2024/03/07 01:11:13;;;;;;;23.80;22.70;;;20.70;53.20;;;;;;4973757;28;20559;-68
2024/03/07 01:13:41;;;;;;;23.73;22.63;;;20.60;53.10;;;;;;4973166;28;20499;-68
2024/03/07 01:16:08;;;;;;;23.07;21.97;;;20.60;53.10;;;;;;4981693;23;20516;-64
2024/03/07 01:18:35;;;;;;;23.67;22.57;;;20.60;53.10;;;;;;4962854;28;20452;-64
2024/03/07 01:21:03;;;;;;;23.70;22.50;;;20.70;53.20;;;;;;4967797;28;20451;-64
2024/03/07 01:23:30;;;;;;;24.97;23.77;;;20.60;53.10;;;;;;4963102;28;20451;-64
2024/03/07 01:25:57;;;;;;;24.70;23.40;;;20.70;53.20;;;;;;4962436;28;20812;-64
2024/03/07 01:28:23;;;;;;;23.60;22.50;;;20.60;53.20;;;;;;4972439;28;20475;-64
2024/03/07 01:30:52;;;;;;;23.07;21.97;;;20.60;53.20;;;;;;4973325;28;20440;-64
2024/03/07 01:33:19;;;;;;;23.67;22.43;;;20.60;53.30;;;;;;4972464;28;20483;-64
2024/03/07 01:35:46;;;;;;;24.70;23.40;;;20.60;53.30;;;;;;4972555;28;20463;-64
2024/03/07 01:38:13;;;;;;;23.70;22.60;;;20.60;53.30;;;;;;4972843;28;20447;-62
2024/03/07 01:40:40;;;;;;;23.87;22.70;;;20.50;53.20;;;;;;4972855;28;20541;-63
2024/03/07 01:43:08;;;;;;;23.47;22.37;;;20.50;53.20;;;;;;4972405;28;20819;-64
2024/03/07 01:45:37;;;;;;;23.20;22.20;;;20.50;53.20;;;;;;4972192;28;20467;-64
2024/03/07 01:48:06;;;;;;;24.20;23.00;;;20.50;53.20;;;;;;4972984;28;20443;-64
2024/03/07 01:50:33;;;;;;;23.87;22.77;;;20.50;53.20;;;;;;4972490;28;20443;-63
2024/03/07 01:53:01;;;;;;;23.90;22.70;;;20.50;53.80;;;;;;4973980;28;20482;-63
2024/03/07 01:55:28;;;;;;;24.20;23.00;;;20.50;53.30;;;;;;4975336;28;20460;-63
2024/03/07 01:57:57;;;;;;;23.90;22.80;;;20.50;53.30;;;;;;4979163;28;20451;-64
2024/03/07 02:00:24;;;;;;;24.57;23.30;;;20.40;53.30;;;;;;4978275;28;20443;-63
2024/03/07 02:02:50;;;;;;;24.20;23.00;;;20.40;53.30;;;;;;4978682;28;20439;-63
2024/03/07 02:05:19;;;;;;;24.07;22.83;;;20.50;53.50;;;;;;4978338;28;20467;-64
2024/03/07 02:07:46;;;;;;;23.47;22.40;;;20.40;53.50;;;;;;4979100;28;20474;-63
2024/03/07 02:10:13;;;;;;;23.40;22.20;;;20.40;53.60;;;;;;4979150;28;20448;-62
2024/03/07 02:12:39;;;;;;;23.67;22.60;;;20.40;53.60;;;;;;4978043;28;20941;-63
2024/03/07 02:15:07;;;;;;;23.60;22.50;;;20.40;53.60;;;;;;4978963;28;20471;-64
2024/03/07 02:17:36;;;;;;;23.60;22.50;;;20.40;53.60;;;;;;4978910;28;20452;-64
2024/03/07 02:20:07;;;;;;;24.17;23.07;;;20.40;53.60;;;;;;4979006;28;20447;-64
2024/03/07 02:22:35;;;;;;;23.90;22.70;;;20.40;53.60;;;;;;4978187;28;20933;-63
2024/03/07 02:25:02;;;;;;;23.63;22.43;;;20.30;53.50;;;;;;4978571;28;20471;-64
2024/03/07 02:27:29;;;;;;;23.90;22.77;;;20.30;53.50;;;;;;4978824;28;20452;-64
2024/03/07 02:29:56;;;;;;;23.60;22.50;;;20.30;53.50;;;;;;4978772;28;20532;-64
2024/03/07 02:32:23;;;;;;;23.70;22.60;;;20.30;53.50;;;;;;4978014;28;20503;-64
2024/03/07 02:34:50;;;;;;;23.90;22.80;;;20.20;53.40;;;;;;4978905;28;20494;-64
2024/03/07 02:37:17;;;;;;;24.37;23.17;;;20.20;53.40;;;;;;4978838;28;20444;-64
2024/03/07 02:39:45;;;;;;;23.83;22.70;;;20.20;53.50;;;;;;4978538;28;20526;-63
2024/03/07 02:42:12;;;;;;;24.10;22.90;;;20.20;53.50;;;;;;4978424;28;20436;-63
2024/03/07 02:44:39;;;;;;;23.60;22.43;;;20.30;53.60;;;;;;4978112;28;20962;-63
2024/03/07 02:47:06;;;;;;;24.00;22.80;;;20.20;53.50;;;;;;4978603;28;20463;-64
2024/03/07 02:49:33;;;;;;;24.43;23.33;;;20.20;53.50;;;;;;4978462;28;20501;-64
2024/03/07 02:51:59;;;;;;;23.10;22.10;;;20.20;53.60;;;;;;4978262;28;20483;-64
2024/03/07 02:54:26;;;;;;;24.10;23.00;;;20.20;53.70;;;;;;4978082;28;20960;-63
2024/03/07 02:56:54;;;;;;;24.50;23.30;;;20.20;53.70;;;;;;4978559;28;20443;-64
2024/03/07 02:59:21;;;;;;;24.20;23.03;;;20.20;53.70;;;;;;4978575;28;20873;-64
2024/03/07 03:01:48;;;;;;;23.70;22.60;;;20.20;53.70;;;;;;4978472;28;21002;-64
2024/03/07 03:04:14;;;;;;;24.00;22.80;;;20.10;53.70;;;;;;4976845;28;20450;-64
2024/03/07 03:06:41;;;;;;;24.00;22.70;;;20.10;53.70;;;;;;4974827;28;20468;-64
2024/03/07 03:09:13;;;;;;;24.67;23.47;;;20.10;53.70;;;;;;4975306;28;20444;-64
2024/03/07 03:11:39;;;;;;;23.67;22.57;;;20.20;53.80;;;;;;4975322;28;20455;-64
2024/03/07 03:14:07;;;;;;;23.60;22.50;;;20.20;53.80;;;;;;4974754;28;20824;-64
2024/03/07 03:16:34;;;;;;;23.73;22.70;;;20.10;53.70;;;;;;4975158;28;20472;-64
2024/03/07 03:19:01;;;;;;;24.03;22.73;;;20.10;53.80;;;;;;4975473;28;20443;-64
2024/03/07 03:21:27;;;;;;;23.70;22.50;;;20.10;53.80;;;;;;4975260;28;20448;-64
2024/03/07 03:23:54;;;;;;;23.80;22.63;;;20.10;53.90;;;;;;4974467;28;20536;-63
2024/03/07 03:26:21;;;;;;;23.93;22.67;;;20.10;53.90;;;;;;4974506;28;20468;-63
2024/03/07 03:28:48;;;;;;;24.90;23.60;;;20.10;53.80;;;;;;4975158;28;20450;-64
2024/03/07 03:31:16;;;;;;;24.47;23.37;;;20.10;53.80;;;;;;4975123;28;20818;-64
2024/03/07 03:33:43;;;;;;;24.33;23.17;;;20.10;53.80;;;;;;4974255;28;20487;-63
2024/03/07 03:36:10;;;;;;;24.10;22.80;;;20.10;53.80;;;;;;4974752;28;20479;-63
2024/03/07 03:38:37;;;;;;;24.00;22.90;;;20.10;53.80;;;;;;4975086;28;20486;-63
2024/03/07 03:41:04;;;;;;;24.23;23.13;;;20.10;54.40;;;;;;4974998;28;20444;-62
2024/03/07 03:43:31;;;;;;;24.70;23.50;;;20.00;53.80;;;;;;4973981;28;20787;-64
2024/03/07 03:45:58;;;;;;;24.63;23.43;;;20.00;53.80;;;;;;4974693;28;20547;-63
2024/03/07 03:48:26;;;;;;;24.63;23.50;;;20.00;53.80;;;;;;4974858;28;20440;-63
2024/03/07 03:50:54;;;;;;;24.27;23.17;;;20.00;53.80;;;;;;4967007;28;20478;-64
2024/03/07 03:53:20;;;;;;;24.90;23.70;;;20.00;53.80;;;;;;4973921;28;21056;-63
2024/03/07 03:55:47;;;;;;;24.77;23.53;;;20.00;53.80;;;;;;4974647;28;20795;-63
2024/03/07 03:58:14;;;;;;;24.63;23.30;;;20.00;53.70;;;;;;4974507;28;20448;-63
2024/03/07 04:00:40;;;;;;;25.50;24.20;;;20.00;53.80;;;;;;4974351;28;20447;-63
2024/03/07 04:03:08;;;;;;;24.20;23.10;;;20.00;53.80;;;;;;4973804;28;20532;-64
2024/03/07 04:05:36;;;;;;;25.20;24.10;;;20.00;53.80;;;;;;4974410;28;20530;-64
2024/03/07 04:08:04;;;;;;;25.20;24.00;;;20.00;53.80;;;;;;4974579;28;20448;-64
2024/03/07 04:10:31;;;;;;;25.10;23.80;;;19.90;53.70;;;;;;4974163;28;20447;-64
2024/03/07 04:12:58;;;;;;;24.77;23.57;;;19.90;53.70;;;;;;4973524;28;20836;-63
2024/03/07 04:15:26;;;;;;;24.53;23.43;;;19.90;53.70;;;;;;4974296;28;20503;-64
2024/03/07 04:17:53;;;;;;;24.50;23.40;;;19.90;53.70;;;;;;4974197;28;20465;-63
2024/03/07 04:20:20;;;;;;;25.17;23.97;;;19.90;53.70;;;;;;4974004;28;20454;-63
2024/03/07 04:22:48;;;;;;;26.70;25.30;;;19.90;53.70;;;;;;4973087;28;20444;-64
2024/03/07 04:25:15;;;;;;;25.00;23.73;;;19.90;53.80;;;;;;4973902;28;20476;-63
2024/03/07 04:27:42;;;;;;;26.10;24.67;;;19.90;53.70;;;;;;4973920;28;20472;-64
2024/03/07 04:30:10;;;;;;;24.73;23.60;;;19.90;53.80;;;;;;4973944;28;20448;-63
2024/03/07 04:32:38;;;;;;;25.20;24.00;;;19.90;53.80;;;;;;4973008;28;20515;-64
2024/03/07 04:35:08;;;;;;;25.67;24.30;;;19.90;53.70;;;;;;4973572;28;20468;-64
2024/03/07 04:37:36;;;;;;;25.77;24.33;;;19.90;53.80;;;;;;4973911;28;20451;-64
2024/03/07 04:40:14;;;;;;;25.00;23.87;;;19.80;53.70;;;;;;4973714;28;20539;-64
2024/03/07 04:42:41;;;;;;;25.50;23.97;;;19.90;53.80;;;;;;4973206;28;20447;-64
2024/03/07 04:45:10;;;;;;;25.10;23.70;;;19.80;53.70;;;;;;4974033;28;20471;-64
2024/03/07 04:47:38;;;;;;;25.57;24.00;;;19.80;53.70;;;;;;4973596;28;20452;-64
2024/03/07 04:50:05;;;;;;;25.33;23.93;;;19.80;53.70;;;;;;4973539;28;20538;-64
2024/03/07 04:52:33;;;;;;;24.70;23.50;;;19.80;53.60;;;;;;4972779;28;20480;-64
2024/03/07 04:54:59;;;;;;;25.73;24.43;;;19.80;53.50;;;;;;4973476;28;20836;-64
2024/03/07 04:57:28;;;;;;;25.10;23.80;;;19.80;53.60;;;;;;4973422;28;20455;-64
2024/03/07 04:59:55;;;;;;;25.77;24.57;;;19.80;53.70;;;;;;4965624;28;20826;-64
2024/03/07 05:02:23;;;;;;;27.23;25.83;;;19.80;53.80;;;;;;4972580;28;20459;-63
2024/03/07 05:04:51;;;;;;;26.67;25.33;;;19.80;53.80;;;;;;4973009;28;20555;-64
2024/03/07 05:07:18;;;;;;;25.27;24.10;;;19.70;53.80;;;;;;4973136;28;20451;-64
2024/03/07 05:09:45;;;;;;;27.73;26.13;;;19.70;53.80;;;;;;4973205;28;20531;-64
2024/03/07 05:12:12;;;;;;;25.60;24.30;;;19.80;53.80;;;;;;4972521;28;20444;-64
2024/03/07 05:14:40;;;;;;;26.20;25.00;;;19.70;53.80;;;;;;4972751;28;20896;-64
2024/03/07 05:17:08;;;;;;;26.00;24.80;;;19.70;53.80;;;;;;4973114;28;20451;-64
2024/03/07 05:19:35;;;;;;;27.10;25.80;;;19.70;53.80;;;;;;4972945;28;20451;-64
2024/03/07 05:22:04;;;;;;;27.60;26.20;;;19.70;53.70;;;;;;4972560;28;20444;-63
2024/03/07 05:24:32;;;;;;;26.67;25.40;;;19.70;53.70;;;;;;4972719;28;20494;-64
2024/03/07 05:26:59;;;;;;;26.10;24.90;;;19.70;53.80;;;;;;4972983;28;20531;-64
2024/03/07 05:29:26;;;;;;;27.70;26.30;;;19.70;53.80;;;;;;4972509;28;20448;-64
2024/03/07 05:31:54;;;;;;;27.10;25.77;;;19.70;53.90;;;;;;4972476;28;20456;-64
2024/03/07 05:34:23;;;;;;;26.60;25.30;;;19.70;53.90;;;;;;4972317;28;21019;-64
2024/03/07 05:36:50;;;;;;;25.63;24.53;;;19.70;53.90;;;;;;4972767;28;20533;-64
2024/03/07 05:39:18;;;;;;;25.63;24.40;;;19.70;53.90;;;;;;4972839;28;20447;-63
2024/03/07 05:41:45;;;;;;;26.47;25.20;;;19.70;53.90;;;;;;4972487;28;20455;-64
2024/03/07 05:44:12;;;;;;;26.97;25.67;;;19.70;54.00;;;;;;4972409;28;20845;-64
2024/03/07 05:46:45;;;;;;;25.40;24.30;;;19.70;54.00;;;;;;4972454;28;20985;-64
2024/03/07 05:49:14;;;;;;;25.77;24.60;;;19.70;54.00;;;;;;4972791;28;20527;-64
2024/03/07 05:51:44;;;;;;;25.07;23.97;;;19.70;53.70;;;;;;4972201;28;20503;-64
2024/03/07 05:54:12;;;;;;;26.93;25.13;;;19.70;53.60;;;;;;4972368;28;20566;-64
2024/03/07 05:56:40;;;;;;;28.70;27.00;;;19.80;54.60;;;;;;4972552;28;20490;-64
2024/03/07 05:59:09;;;;;;;28.00;26.27;;;19.80;56.50;;;;;;4972609;28;20440;-64
2024/03/07 06:01:36;;;;;;;30.43;27.90;;;19.80;58.00;;;;;;4972094;28;20455;-64
2024/03/07 06:04:05;;;;;;;31.23;28.17;;;19.90;58.50;;;;;;4972163;28;20455;-63
2024/03/07 06:06:34;;;;;;;32.13;28.73;;;19.90;59.60;;;;;;4972516;28;20472;-64
2024/03/07 06:09:03;;;;;;;36.43;32.43;;;19.80;61.50;;;;;;4965041;28;20452;-65
2024/03/07 06:11:33;;;;;;;33.80;30.30;;;19.80;60.60;;;;;;4972296;28;20444;-65
2024/03/07 06:14:02;;;;;;;34.67;31.47;;;19.80;63.70;;;;;;4972032;28;20487;-65
2024/03/07 06:16:32;;;;;;;33.47;30.87;;;19.80;64.50;;;;;;4972249;28;21074;-65
2024/03/07 06:18:59;;;;;;;32.83;30.03;;;19.80;64.50;;;;;;4964580;28;20535;-66
2024/03/07 06:21:26;;;;;;;32.57;30.23;;;19.80;64.10;;;;;;4970735;28;20908;-65
2024/03/07 06:23:59;;;;;;;32.60;30.00;;;19.80;63.80;;;;;;4971227;28;20452;-65
2024/03/07 06:26:36;;;;;;;31.37;28.97;;;19.80;63.60;;;;;;4972240;28;20471;-65
2024/03/07 06:29:04;;;;;;;31.60;28.60;;;19.80;63.20;;;;;;4965027;28;20758;-65
2024/03/07 06:31:31;;;;;;;30.90;28.47;;;19.80;62.70;;;;;;4972876;28;20448;-64
2024/03/07 06:33:58;;;;;;;30.47;28.00;;;19.80;62.20;;;;;;4965098;28;20488;-65
2024/03/07 06:36:25;;;;;;;29.40;27.80;;;19.80;61.90;;;;;;4973186;28;20468;-64
2024/03/07 06:38:53;;;;;;;32.93;30.07;;;19.80;61.50;;;;;;4972955;28;20476;-65
2024/03/07 06:41:20;;;;;;;30.50;28.37;;;19.80;61.10;;;;;;4975579;28;20501;-65
2024/03/07 06:43:48;;;;;;;29.00;27.20;;;19.80;60.70;;;;;;4975523;28;20447;-65
2024/03/07 06:46:16;;;;;;;30.90;28.70;;;19.80;60.30;;;;;;4975783;28;20472;-66
2024/03/07 06:48:43;;;;;;;29.63;27.90;;;19.80;60.00;;;;;;4975559;28;20498;-65
2024/03/07 06:51:10;;;;;;;29.80;28.00;;;19.80;59.80;;;;;;4975807;28;20511;-65
2024/03/07 06:53:37;;;;;;;29.57;27.87;;;19.80;59.60;;;;;;4975226;28;20479;-65
2024/03/07 06:56:06;;;;;;;29.90;27.70;;;19.80;59.40;;;;;;4975631;28;20864;-65
2024/03/07 06:58:33;;;;;;;29.80;28.20;;;19.80;59.20;;;;;;4975611;28;20887;-65
2024/03/07 07:01:00;;;;;;;29.00;27.50;;;19.80;59.00;;;;;;4967896;28;20439;-64
2024/03/07 07:03:28;;;;;;;31.07;29.27;;;19.80;58.90;;;;;;4975933;28;20439;-64
2024/03/07 07:05:54;;;;;;;30.33;28.53;;;19.80;58.70;;;;;;4975927;28;20519;-64
2024/03/07 07:08:21;;;;;;;30.30;28.30;;;19.80;58.60;;;;;;4976175;28;20444;-65
2024/03/07 07:10:48;;;;;;;32.03;30.23;;;19.80;58.40;;;;;;4976539;28;20515;-65
2024/03/07 07:13:16;;;;;;;30.37;28.30;;;19.80;58.30;;;;;;4976156;28;20479;-65
2024/03/07 07:15:43;;;;;;;31.63;29.57;;;19.80;58.20;;;;;;5020477;23;20507;-67
2024/03/07 07:18:10;;;;;;;29.63;27.70;;;19.70;57.90;;;;;;4986591;28;20439;-67
2024/03/07 07:20:37;;;;;;;31.33;29.23;;;19.70;57.80;;;;;;4986294;28;20905;-67
2024/03/07 07:23:04;;;;;;;30.13;28.33;;;19.70;57.70;;;;;;4983012;28;20471;-67
2024/03/07 07:25:31;;;;;;;30.60;28.43;;;19.70;57.50;;;;;;4983304;28;20464;-66
2024/03/07 07:27:58;;;;;;;30.40;28.30;;;19.80;57.60;;;;;;4985859;28;20439;-67
2024/03/07 07:30:27;;;;;;;30.20;28.53;;;19.70;57.40;;;;;;4986591;28;20439;-67
2024/03/07 07:32:54;;;;;;;31.43;29.43;;;19.70;57.20;;;;;;4983438;28;20447;-67
2024/03/07 07:35:21;;;;;;;29.23;27.43;;;19.70;57.10;;;;;;4982911;28;20463;-67
2024/03/07 07:37:50;;;;;;;29.60;27.93;;;19.70;57.10;;;;;;4984482;28;20938;-67
2024/03/07 07:40:18;;;;;;;29.47;27.70;;;19.70;57.00;;;;;;4986033;28;20489;-66
2024/03/07 07:42:46;;;;;;;30.47;28.10;;;19.70;56.90;;;;;;4984731;28;20940;-67
2024/03/07 07:45:15;;;;;;;29.50;28.00;;;19.70;56.80;;;;;;4982637;28;20464;-67
2024/03/07 07:47:44;;;;;;;30.00;28.37;;;19.70;56.70;;;;;;4983254;28;20534;-68
2024/03/07 07:50:13;;;;;;;29.20;27.50;;;19.70;56.70;;;;;;4986000;28;20454;-68
2024/03/07 07:52:44;;;;;;;29.00;27.13;;;19.70;56.60;;;;;;4984875;28;20952;-67
2024/03/07 07:55:14;;;;;;;29.67;27.63;;;19.70;56.50;;;;;;4982411;28;20495;-68
2024/03/07 07:57:45;;;;;;;30.13;28.33;;;19.70;56.40;;;;;;4982844;28;20534;-67
2024/03/07 08:00:21;;;;;;;28.53;26.93;;;19.70;56.80;;;;;;4985782;28;20443;-68
2024/03/07 08:02:53;;;;;;;28.90;27.43;;;19.70;56.30;;;;;;4984064;28;20450;-68
2024/03/07 08:05:20;;;;;;;28.10;26.60;;;19.70;56.20;;;;;;4982318;28;20484;-68
2024/03/07 08:07:47;;;;;;;28.50;26.80;;;19.70;56.70;;;;;;4983429;28;20452;-67
2024/03/07 08:10:15;;;;;;;29.40;27.90;;;19.70;56.10;;;;;;4985686;28;20872;-67
2024/03/07 08:12:43;;;;;;;31.80;30.00;;;19.70;56.00;;;;;;4984596;28;20991;-67
2024/03/07 08:15:13;;;;;;;28.70;27.10;;;19.70;56.00;;;;;;4981832;28;20487;-68
2024/03/07 08:17:42;;;;;;;28.63;27.20;;;19.70;55.90;;;;;;4982270;28;20448;-68
2024/03/07 08:20:12;;;;;;;28.80;27.40;;;19.60;55.80;;;;;;4985451;28;20451;-67
2024/03/07 08:22:40;;;;;;;30.70;28.80;;;19.60;55.80;;;;;;4984899;28;20447;-66
2024/03/07 08:25:09;;;;;;;28.53;26.83;;;19.60;55.70;;;;;;4981977;28;20523;-66
2024/03/07 08:27:35;;;;;;;28.73;27.13;;;19.70;55.70;;;;;;4982050;28;20459;-67
2024/03/07 08:30:03;;;;;;;27.70;26.20;;;19.70;55.70;;;;;;4984956;28;20439;-67
2024/03/07 08:32:30;;;;;;;28.30;26.73;;;19.60;55.60;;;;;;4985101;28;20835;-67
2024/03/07 08:34:57;;;;;;;28.83;27.00;;;19.60;55.60;;;;;;4982626;28;20486;-67
2024/03/07 08:37:25;;;;;;;28.13;26.53;;;19.60;55.50;;;;;;4981967;28;20483;-67
2024/03/07 08:39:52;;;;;;;28.33;26.70;;;19.60;55.50;;;;;;4983533;28;20443;-67
2024/03/07 08:42:19;;;;;;;27.90;26.50;;;19.60;55.40;;;;;;4984960;28;20450;-67
2024/03/07 08:44:46;;;;;;;28.57;26.83;;;19.60;55.40;;;;;;4976867;28;20444;-66
2024/03/07 08:47:12;;;;;;;27.43;25.93;;;19.60;55.30;;;;;;4985039;28;20486;-67
2024/03/07 08:49:39;;;;;;;28.83;27.10;;;19.60;55.30;;;;;;4984897;28;20481;-67
2024/03/07 08:52:08;;;;;;;29.73;27.87;;;19.60;55.30;;;;;;4973293;28;20523;-67
2024/03/07 08:54:36;;;;;;;29.90;28.17;;;19.60;55.20;;;;;;4981749;28;20489;-67
2024/03/07 08:57:04;;;;;;;29.43;27.67;;;19.60;55.20;;;;;;4984530;28;20836;-67
2024/03/07 08:59:33;;;;;;;30.50;28.83;;;19.60;55.70;;;;;;4984844;28;20443;-67
2024/03/07 09:02:01;;;;;;;29.57;27.87;;;19.60;55.20;;;;;;4981536;28;20533;-66
2024/03/07 09:04:28;;;;;;;30.27;28.40;;;19.60;55.70;;;;;;4980969;28;20440;-67
2024/03/07 09:06:55;;;;;;;29.23;27.63;;;19.60;55.00;;;;;;4983335;28;20476;-67
2024/03/07 09:09:22;;;;;;;30.70;29.07;;;19.60;55.00;;;;;;4984757;28;20445;-67
2024/03/07 09:11:50;;;;;;;30.43;28.60;;;19.60;55.00;;;;;;4984263;28;20958;-67
2024/03/07 09:14:17;;;;;;;29.20;27.57;;;19.60;55.00;;;;;;4983691;28;21015;-68
2024/03/07 09:16:44;;;;;;;28.70;27.10;;;19.50;54.90;;;;;;4983642;28;20554;-67
2024/03/07 09:19:13;;;;;;;30.17;28.20;;;19.60;54.90;;;;;;4981075;28;20820;-68
2024/03/07 09:21:41;;;;;;;29.63;28.03;;;19.60;54.80;;;;;;4981231;28;20451;-66
2024/03/07 09:24:08;;;;;;;29.13;27.53;;;19.60;54.80;;;;;;4972978;28;20436;-67
2024/03/07 09:26:35;;;;;;;28.60;27.10;;;19.50;54.70;;;;;;4981090;28;20548;-67
2024/03/07 09:29:05;;;;;;;29.23;27.30;;;19.60;54.80;;;;;;4983982;28;20448;-66
2024/03/07 09:31:32;;;;;;;29.97;28.47;;;19.60;54.70;;;;;;4985025;28;20448;-67
2024/03/07 09:33:59;;;;;;;28.60;27.00;;;19.60;54.70;;;;;;4982126;28;20482;-68
2024/03/07 09:36:26;;;;;;;30.27;28.73;;;19.60;54.70;;;;;;4982418;28;20478;-67
2024/03/07 09:38:53;;;;;;;30.67;28.97;;;19.60;54.60;;;;;;4982694;28;20451;-66
2024/03/07 09:41:20;;;;;;;29.40;28.00;;;19.50;54.50;;;;;;4984366;28;20501;-67
2024/03/07 09:43:48;;;;;;;29.30;27.73;;;19.50;54.50;;;;;;4983117;28;20450;-67
2024/03/07 09:46:17;;;;;;;28.13;26.70;;;19.50;54.50;;;;;;4980677;28;20486;-67
2024/03/07 09:48:44;;;;;;;28.93;27.40;;;19.60;54.60;;;;;;4980712;28;20812;-67
2024/03/07 09:51:12;;;;;;;29.80;28.10;;;19.50;54.40;;;;;;4983993;28;20442;-67
2024/03/07 09:53:40;;;;;;;29.20;27.70;;;19.60;54.50;;;;;;4983654;28;20505;-67
2024/03/07 09:56:08;;;;;;;29.70;28.10;;;19.60;54.50;;;;;;4980384;28;20896;-67
2024/03/07 09:58:35;;;;;;;29.67;27.97;;;19.50;54.40;;;;;;4980595;28;20440;-67
2024/03/07 10:01:05;;;;;;;29.03;27.57;;;19.60;54.40;;;;;;4983189;28;20534;-67
2024/03/07 10:03:36;;;;;;;30.13;28.47;;;19.60;54.40;;;;;;4983428;28;20929;-68
2024/03/07 10:06:04;;;;;;;29.17;27.67;;;19.60;54.40;;;;;;4981033;28;20467;-67
2024/03/07 10:08:31;;;;;;;28.73;27.03;;;19.60;54.30;;;;;;4980742;28;20451;-68
2024/03/07 10:11:00;;;;;;;27.80;26.30;;;19.50;54.20;;;;;;4982243;28;20447;-67
2024/03/07 10:13:27;;;;;;;30.97;28.87;;;19.50;54.20;;;;;;4983267;28;20447;-67
2024/03/07 10:15:56;;;;;;;28.63;27.03;;;19.50;54.20;;;;;;4985925;28;20482;-67
2024/03/07 10:18:23;;;;;;;30.67;28.57;;;19.50;54.10;;;;;;4984391;28;20455;-67
2024/03/07 10:20:54;;;;;;;29.60;28.00;;;19.50;54.10;;;;;;4984969;28;20502;-68
2024/03/07 10:23:21;;;;;;;29.57;27.90;;;19.50;54.10;;;;;;4987340;28;20439;-67
2024/03/07 10:25:48;;;;;;;28.13;26.73;;;19.50;54.10;;;;;;4986889;28;20511;-67
2024/03/07 10:28:16;;;;;;;28.40;27.10;;;19.50;54.10;;;;;;4984307;28;20445;-67
2024/03/07 10:30:45;;;;;;;29.37;27.60;;;19.50;54.10;;;;;;4984047;28;20453;-67
2024/03/07 10:33:14;;;;;;;28.73;27.30;;;19.50;54.10;;;;;;4976108;28;20443;-67
2024/03/07 10:35:40;;;;;;;28.60;27.20;;;19.50;54.00;;;;;;4984139;28;20542;-68
2024/03/07 10:38:11;;;;;;;29.17;27.67;;;19.50;54.00;;;;;;4986803;28;20451;-67
2024/03/07 10:40:40;;;;;;;28.80;27.20;;;19.50;53.90;;;;;;4987169;28;20478;-67
2024/03/07 10:43:11;;;;;;;30.00;28.60;;;19.50;53.90;;;;;;4984094;28;20443;-68
2024/03/07 10:45:46;;;;;;;29.03;27.30;;;19.50;53.90;;;;;;4983903;28;21039;-66
2024/03/07 10:48:13;;;;;;;29.47;27.80;;;19.50;53.80;;;;;;4976252;28;20829;-68
2024/03/07 10:50:54;;;;;;;28.40;27.00;;;19.50;53.80;;;;;;4983880;28;20450;-67
2024/03/07 10:53:30;;;;;;;28.20;26.70;;;19.50;53.80;;;;;;4976884;28;20534;-67
2024/03/07 10:56:19;;;;;;;28.50;27.10;;;19.50;53.80;;;;;;4985026;28;20490;-67
2024/03/07 10:58:59;;;;;;;29.90;28.30;;;19.50;53.80;;;;;;4987052;28;20446;-67
2024/03/07 11:01:27;;;;;;;29.00;27.60;;;19.50;53.80;;;;;;4977509;28;20475;-68
2024/03/07 11:03:57;;;;;;;28.30;27.00;;;19.50;53.80;;;;;;4984387;28;20459;-67
2024/03/07 11:06:24;;;;;;;29.23;27.70;;;19.50;53.70;;;;;;4986795;28;20471;-67
2024/03/07 11:08:54;;;;;;;29.00;27.60;;;19.50;53.70;;;;;;4986101;28;20447;-68
2024/03/07 11:11:23;;;;;;;28.53;27.13;;;19.50;53.70;;;;;;4983551;28;20448;-67
2024/03/07 11:13:50;;;;;;;29.03;27.53;;;19.50;53.70;;;;;;4983622;28;20940;-69
2024/03/07 11:16:18;;;;;;;28.10;26.70;;;19.50;53.70;;;;;;4986394;28;20995;-67
2024/03/07 11:19:18;;;;;;;27.50;26.20;;;19.50;53.60;;;;;;4986695;28;20946;-68
2024/03/07 11:21:45;;;;;;;27.87;26.47;;;19.50;53.60;;;;;;4979649;28;20451;-68
2024/03/07 11:24:24;;;;;;;28.40;26.90;;;19.50;53.60;;;;;;4986118;28;20440;-68
2024/03/07 11:26:53;;;;;;;28.50;27.00;;;19.50;53.60;;;;;;4985060;28;20549;-68
2024/03/07 11:29:43;;;;;;;28.47;27.07;;;19.50;53.60;;;;;;4983170;28;20440;-68
2024/03/07 11:32:13;;;;;;;27.60;26.30;;;19.50;53.50;;;;;;4985906;28;20463;-68
2024/03/07 11:34:42;;;;;;;27.93;26.50;;;19.50;53.50;;;;;;4986300;28;21018;-68
2024/03/07 11:37:17;;;;;;;28.90;27.23;;;19.50;53.50;;;;;;4983436;28;20886;-68
2024/03/07 11:39:47;;;;;;;28.13;26.73;;;19.50;53.50;;;;;;4983019;28;20804;-69
2024/03/07 11:42:28;;;;;;;27.60;26.20;;;19.50;53.50;;;;;;4974620;28;20996;-68
2024/03/07 11:44:56;;;;;;;27.50;26.10;;;19.50;53.50;;;;;;4983553;28;20444;-68
2024/03/07 11:47:25;;;;;;;26.30;24.90;;;19.50;53.40;;;;;;4986231;28;20511;-68
2024/03/07 11:49:52;;;;;;;28.00;26.47;;;19.50;53.40;;;;;;4985547;28;20513;-67
2024/03/07 11:52:19;;;;;;;27.33;25.83;;;19.50;53.40;;;;;;4982397;28;20447;-68
2024/03/07 11:54:47;;;;;;;27.87;26.47;;;19.50;53.40;;;;;;4982693;28;20586;-68
2024/03/07 11:57:16;;;;;;;27.40;25.90;;;19.50;53.30;;;;;;4982669;28;20464;-68
2024/03/07 11:59:45;;;;;;;27.03;25.80;;;19.60;53.40;;;;;;4982548;28;20448;-67
2024/03/07 12:02:15;;;;;;;27.40;26.20;;;19.50;53.30;;;;;;4985098;28;20443;-69
2024/03/07 12:04:42;;;;;;;26.90;25.63;;;19.60;53.30;;;;;;4985897;28;20445;-66
2024/03/07 12:07:10;;;;;;;27.30;26.00;;;19.50;53.50;;;;;;4982965;28;20558;-68
2024/03/07 12:09:37;;;;;;;27.70;26.27;;;19.50;53.20;;;;;;4982123;28;20971;-67
2024/03/07 12:12:07;;;;;;;27.43;26.03;;;19.60;53.30;;;;;;4983857;28;20979;-67
2024/03/07 12:14:34;;;;;;;27.77;26.40;;;19.60;53.30;;;;;;4985644;28;20813;-67
2024/03/07 12:17:01;;;;;;;27.97;26.47;;;19.50;53.20;;;;;;4983723;28;20471;-68
2024/03/07 12:19:28;;;;;;;30.17;28.73;;;19.60;53.20;;;;;;4982111;28;20448;-68
2024/03/07 12:21:58;;;;;;;28.40;27.00;;;19.60;53.10;;;;;;4982682;28;20451;-67
2024/03/07 12:24:25;;;;;;;27.00;25.73;;;19.60;53.10;;;;;;4985173;28;20527;-68
2024/03/07 12:26:52;;;;;;;27.03;25.80;;;19.60;53.10;;;;;;4984867;28;20975;-67
2024/03/07 12:29:27;;;;;;;26.23;25.03;;;19.60;53.10;;;;;;4981785;28;20535;-68
2024/03/07 12:31:54;;;;;;;27.57;26.17;;;19.60;53.10;;;;;;4982146;28;20466;-68